sensor_id;sensor_type;location;lat;lon;timestamp;temperature;humidity
569;DHT22;269;48.884;9.192;2023-04-24T00:01:34;11.60;99.90
569;DHT22;269;48.884;9.192;2023-04-24T00:04:02;11.60;99.90
569;DHT22;269;48.884;9.192;2023-04-24T00:06:29;11.60;99.90
569;DHT22;269;48.884;9.192;2023-04-24T00:08:59;11.70;99.90
569;DHT22;269;48.884;9.192;2023-04-24T00:11:28;11.70;99.90
569;DHT22;269;48.884;9.192;2023-04-24T00:13:55;11.70;99.90
569;DHT22;269;48.884;9.192;2023-04-24T00:16:23;11.70;99.90
569;DHT22;269;48.884;9.192;2023-04-24T00:18:50;11.70;99.90
569;DHT22;269;48.884;9.192;2023-04-24T00:21:18;11.80;99.90
569;DHT22;269;48.884;9.192;2023-04-24T00:23:45;11.80;99.90
569;DHT22;269;48.884;9.192;2023-04-24T00:26:12;11.80;99.90
569;DHT22;269;48.884;9.192;2023-04-24T00:28:41;11.90;99.90
569;DHT22;269;48.884;9.192;2023-04-24T00:31:08;11.90;99.90
569;DHT22;269;48.884;9.192;2023-04-24T00:33:35;11.90;99.90
569;DHT22;269;48.884;9.192;2023-04-24T00:36:02;11.90;99.90
569;DHT22;269;48.884;9.192;2023-04-24T00:38:30;11.90;99.90
569;DHT22;269;48.884;9.192;2023-04-24T00:40:57;12.00;99.90
569;DHT22;269;48.884;9.192;2023-04-24T00:43:24;12.00;99.90
569;DHT22;269;48.884;9.192;2023-04-24T00:45:52;12.00;99.90
569;DHT22;269;48.884;9.192;2023-04-24T00:48:20;12.00;99.90
569;DHT22;269;48.884;9.192;2023-04-24T00:50:47;12.00;99.90
569;DHT22;269;48.884;9.192;2023-04-24T00:53:15;12.00;99.90
569;DHT22;269;48.884;9.192;2023-04-24T00:55:41;12.00;99.90
569;DHT22;269;48.884;9.192;2023-04-24T00:58:09;12.00;99.90
569;DHT22;269;48.884;9.192;2023-04-24T01:00:36;12.00;99.90
569;DHT22;269;48.884;9.192;2023-04-24T01:03:05;12.00;99.90
569;DHT22;269;48.884;9.192;2023-04-24T01:05:33;12.00;99.90
569;DHT22;269;48.884;9.192;2023-04-24T01:08:01;12.00;99.90
569;DHT22;269;48.884;9.192;2023-04-24T01:10:29;12.10;99.90
569;DHT22;269;48.884;9.192;2023-04-24T01:12:58;12.00;99.90
569;DHT22;269;48.884;9.192;2023-04-24T01:15:26;12.00;99.90
569;DHT22;269;48.884;9.192;2023-04-24T01:17:52;12.10;99.90
569;DHT22;269;48.884;9.192;2023-04-24T01:20:21;12.10;99.90
569;DHT22;269;48.884;9.192;2023-04-24T01:22:52;12.10;99.90
569;DHT22;269;48.884;9.192;2023-04-24T01:25:19;12.10;99.90
569;DHT22;269;48.884;9.192;2023-04-24T01:27:46;12.10;99.90
569;DHT22;269;48.884;9.192;2023-04-24T01:30:14;12.10;99.90
569;DHT22;269;48.884;9.192;2023-04-24T01:32:41;12.00;99.90
569;DHT22;269;48.884;9.192;2023-04-24T01:35:10;12.00;99.90
569;DHT22;269;48.884;9.192;2023-04-24T01:37:37;12.00;99.90
569;DHT22;269;48.884;9.192;2023-04-24T01:40:07;12.00;99.90
569;DHT22;269;48.884;9.192;2023-04-24T01:42:34;12.00;99.90
569;DHT22;269;48.884;9.192;2023-04-24T01:45:03;11.90;99.90
569;DHT22;269;48.884;9.192;2023-04-24T01:47:31;11.90;99.90
569;DHT22;269;48.884;9.192;2023-04-24T01:49:58;11.90;99.90
569;DHT22;269;48.884;9.192;2023-04-24T01:52:25;11.90;99.90
569;DHT22;269;48.884;9.192;2023-04-24T01:54:54;11.90;99.90
569;DHT22;269;48.884;9.192;2023-04-24T01:57:23;11.90;99.90
569;DHT22;269;48.884;9.192;2023-04-24T01:59:50;11.90;99.90
569;DHT22;269;48.884;9.192;2023-04-24T02:02:17;11.90;99.90
569;DHT22;269;48.884;9.192;2023-04-24T02:04:46;11.90;99.90
569;DHT22;269;48.884;9.192;2023-04-24T02:07:14;11.90;99.90
569;DHT22;269;48.884;9.192;2023-04-24T02:09:40;11.80;99.90
569;DHT22;269;48.884;9.192;2023-04-24T02:12:07;11.80;99.90
569;DHT22;269;48.884;9.192;2023-04-24T02:14:36;11.80;99.90
569;DHT22;269;48.884;9.192;2023-04-24T02:17:03;11.80;99.90
569;DHT22;269;48.884;9.192;2023-04-24T02:19:30;11.80;99.90
569;DHT22;269;48.884;9.192;2023-04-24T02:21:57;11.70;99.90
569;DHT22;269;48.884;9.192;2023-04-24T02:24:24;11.70;99.90
569;DHT22;269;48.884;9.192;2023-04-24T02:26:51;11.80;99.90
569;DHT22;269;48.884;9.192;2023-04-24T02:29:18;11.70;99.90
569;DHT22;269;48.884;9.192;2023-04-24T02:31:47;11.70;99.90
569;DHT22;269;48.884;9.192;2023-04-24T02:34:14;11.70;99.90
569;DHT22;269;48.884;9.192;2023-04-24T02:36:42;11.70;99.90
569;DHT22;269;48.884;9.192;2023-04-24T02:39:09;11.70;99.90
569;DHT22;269;48.884;9.192;2023-04-24T02:41:36;11.70;99.90
569;DHT22;269;48.884;9.192;2023-04-24T02:44:03;11.70;99.90
569;DHT22;269;48.884;9.192;2023-04-24T02:46:30;11.60;99.90
569;DHT22;269;48.884;9.192;2023-04-24T02:48:58;11.50;99.90
569;DHT22;269;48.884;9.192;2023-04-24T02:51:25;11.30;99.90
569;DHT22;269;48.884;9.192;2023-04-24T02:53:52;11.10;99.90
569;DHT22;269;48.884;9.192;2023-04-24T02:56:19;11.00;99.90
569;DHT22;269;48.884;9.192;2023-04-24T02:58:47;10.80;99.90
569;DHT22;269;48.884;9.192;2023-04-24T03:01:14;10.80;99.90
569;DHT22;269;48.884;9.192;2023-04-24T03:03:41;10.80;99.90
569;DHT22;269;48.884;9.192;2023-04-24T03:06:09;10.70;99.90
569;DHT22;269;48.884;9.192;2023-04-24T03:08:36;10.70;99.90
569;DHT22;269;48.884;9.192;2023-04-24T03:11:03;10.70;99.90
569;DHT22;269;48.884;9.192;2023-04-24T03:13:31;10.70;99.90
569;DHT22;269;48.884;9.192;2023-04-24T03:15:57;10.60;99.90
569;DHT22;269;48.884;9.192;2023-04-24T03:18:25;10.60;99.90
569;DHT22;269;48.884;9.192;2023-04-24T03:20:52;10.60;99.90
569;DHT22;269;48.884;9.192;2023-04-24T03:23:20;10.60;99.90
569;DHT22;269;48.884;9.192;2023-04-24T03:25:47;10.60;99.90
569;DHT22;269;48.884;9.192;2023-04-24T03:28:14;10.60;99.90
569;DHT22;269;48.884;9.192;2023-04-24T03:30:41;10.60;99.90
569;DHT22;269;48.884;9.192;2023-04-24T03:33:08;10.60;99.90
569;DHT22;269;48.884;9.192;2023-04-24T03:35:35;10.60;99.90
569;DHT22;269;48.884;9.192;2023-04-24T03:38:02;10.60;99.90
569;DHT22;269;48.884;9.192;2023-04-24T03:40:31;10.60;99.90
569;DHT22;269;48.884;9.192;2023-04-24T03:42:59;10.50;99.90
569;DHT22;269;48.884;9.192;2023-04-24T03:45:26;10.50;99.90
569;DHT22;269;48.884;9.192;2023-04-24T03:47:53;10.50;99.90
569;DHT22;269;48.884;9.192;2023-04-24T03:50:20;10.50;99.90
569;DHT22;269;48.884;9.192;2023-04-24T03:52:47;10.50;99.90
569;DHT22;269;48.884;9.192;2023-04-24T03:55:14;10.40;99.90
569;DHT22;269;48.884;9.192;2023-04-24T03:57:42;10.40;99.90
569;DHT22;269;48.884;9.192;2023-04-24T04:00:11;10.50;99.90
569;DHT22;269;48.884;9.192;2023-04-24T04:02:38;10.50;99.90
569;DHT22;269;48.884;9.192;2023-04-24T04:05:05;10.50;99.90
569;DHT22;269;48.884;9.192;2023-04-24T04:07:33;10.50;99.90
569;DHT22;269;48.884;9.192;2023-04-24T04:10:00;10.40;99.90
569;DHT22;269;48.884;9.192;2023-04-24T04:12:28;10.40;99.90
569;DHT22;269;48.884;9.192;2023-04-24T04:14:57;10.40;99.90
569;DHT22;269;48.884;9.192;2023-04-24T04:17:24;10.50;99.90
569;DHT22;269;48.884;9.192;2023-04-24T04:19:51;10.50;99.90
569;DHT22;269;48.884;9.192;2023-04-24T04:22:18;10.60;99.90
569;DHT22;269;48.884;9.192;2023-04-24T04:24:45;10.60;99.90
569;DHT22;269;48.884;9.192;2023-04-24T04:27:12;10.60;99.90
569;DHT22;269;48.884;9.192;2023-04-24T04:29:39;10.60;99.90
569;DHT22;269;48.884;9.192;2023-04-24T04:32:07;10.30;99.90
569;DHT22;269;48.884;9.192;2023-04-24T04:34:34;10.10;99.90
569;DHT22;269;48.884;9.192;2023-04-24T04:37:03;10.00;99.90
569;DHT22;269;48.884;9.192;2023-04-24T04:39:30;10.00;99.90
569;DHT22;269;48.884;9.192;2023-04-24T04:41:57;9.90;99.90
569;DHT22;269;48.884;9.192;2023-04-24T04:44:24;9.90;99.90
569;DHT22;269;48.884;9.192;2023-04-24T04:46:53;9.90;99.90
569;DHT22;269;48.884;9.192;2023-04-24T04:49:23;9.90;99.90
569;DHT22;269;48.884;9.192;2023-04-24T04:51:50;9.80;99.90
569;DHT22;269;48.884;9.192;2023-04-24T04:54:17;10.00;99.90
569;DHT22;269;48.884;9.192;2023-04-24T04:56:44;9.80;99.90
569;DHT22;269;48.884;9.192;2023-04-24T04:59:11;9.80;99.90
569;DHT22;269;48.884;9.192;2023-04-24T05:01:39;9.80;99.90
569;DHT22;269;48.884;9.192;2023-04-24T05:04:06;9.80;99.90
569;DHT22;269;48.884;9.192;2023-04-24T05:06:34;9.80;99.90
569;DHT22;269;48.884;9.192;2023-04-24T05:09:01;9.80;99.90
569;DHT22;269;48.884;9.192;2023-04-24T05:11:29;9.80;99.90
569;DHT22;269;48.884;9.192;2023-04-24T05:13:56;9.80;99.90
569;DHT22;269;48.884;9.192;2023-04-24T05:16:23;9.90;99.90
569;DHT22;269;48.884;9.192;2023-04-24T05:18:51;10.20;99.90
569;DHT22;269;48.884;9.192;2023-04-24T05:21:18;10.10;99.90
569;DHT22;269;48.884;9.192;2023-04-24T05:23:46;10.20;99.90
569;DHT22;269;48.884;9.192;2023-04-24T05:26:14;10.20;99.90
569;DHT22;269;48.884;9.192;2023-04-24T05:28:41;10.20;99.90
569;DHT22;269;48.884;9.192;2023-04-24T05:31:08;10.20;99.90
569;DHT22;269;48.884;9.192;2023-04-24T05:33:35;10.10;99.90
569;DHT22;269;48.884;9.192;2023-04-24T05:36:02;10.10;99.90
569;DHT22;269;48.884;9.192;2023-04-24T05:38:29;10.10;99.90
569;DHT22;269;48.884;9.192;2023-04-24T05:40:57;10.10;99.90
569;DHT22;269;48.884;9.192;2023-04-24T05:43:24;10.10;99.90
569;DHT22;269;48.884;9.192;2023-04-24T05:45:52;10.00;99.90
569;DHT22;269;48.884;9.192;2023-04-24T05:48:19;10.10;99.90
569;DHT22;269;48.884;9.192;2023-04-24T05:50:47;10.00;99.90
569;DHT22;269;48.884;9.192;2023-04-24T05:53:14;10.00;99.90
569;DHT22;269;48.884;9.192;2023-04-24T05:55:42;9.90;99.90
569;DHT22;269;48.884;9.192;2023-04-24T05:58:10;9.90;99.90
569;DHT22;269;48.884;9.192;2023-04-24T06:00:38;9.90;99.90
569;DHT22;269;48.884;9.192;2023-04-24T06:03:08;9.90;99.90
569;DHT22;269;48.884;9.192;2023-04-24T06:05:35;10.00;99.90
569;DHT22;269;48.884;9.192;2023-04-24T06:08:02;10.00;99.90
569;DHT22;269;48.884;9.192;2023-04-24T06:10:29;10.10;99.90
569;DHT22;269;48.884;9.192;2023-04-24T06:12:57;10.10;99.90
569;DHT22;269;48.884;9.192;2023-04-24T06:15:28;10.00;99.90
569;DHT22;269;48.884;9.192;2023-04-24T06:17:56;10.00;99.90
569;DHT22;269;48.884;9.192;2023-04-24T06:20:23;10.00;99.90
569;DHT22;269;48.884;9.192;2023-04-24T06:22:50;9.90;99.90
569;DHT22;269;48.884;9.192;2023-04-24T06:25:18;9.90;99.90
569;DHT22;269;48.884;9.192;2023-04-24T06:27:46;10.00;99.90
569;DHT22;269;48.884;9.192;2023-04-24T06:30:13;10.10;99.90
569;DHT22;269;48.884;9.192;2023-04-24T06:32:41;10.20;99.90
569;DHT22;269;48.884;9.192;2023-04-24T06:35:08;10.30;99.90
569;DHT22;269;48.884;9.192;2023-04-24T06:37:37;10.40;99.90
569;DHT22;269;48.884;9.192;2023-04-24T06:40:05;10.50;99.90
569;DHT22;269;48.884;9.192;2023-04-24T06:42:32;10.60;99.90
569;DHT22;269;48.884;9.192;2023-04-24T06:45:00;10.70;99.90
569;DHT22;269;48.884;9.192;2023-04-24T06:47:27;10.80;99.90
569;DHT22;269;48.884;9.192;2023-04-24T06:49:56;10.80;99.90
569;DHT22;269;48.884;9.192;2023-04-24T06:52:23;10.80;99.90
569;DHT22;269;48.884;9.192;2023-04-24T06:54:50;10.90;99.90
569;DHT22;269;48.884;9.192;2023-04-24T06:57:17;11.00;99.90
569;DHT22;269;48.884;9.192;2023-04-24T06:59:44;11.00;99.90
569;DHT22;269;48.884;9.192;2023-04-24T07:02:12;11.20;99.90
569;DHT22;269;48.884;9.192;2023-04-24T07:04:39;11.30;99.90
569;DHT22;269;48.884;9.192;2023-04-24T07:07:08;11.60;99.90
569;DHT22;269;48.884;9.192;2023-04-24T07:09:38;11.90;99.90
569;DHT22;269;48.884;9.192;2023-04-24T07:12:07;12.10;99.90
569;DHT22;269;48.884;9.192;2023-04-24T07:14:36;12.30;99.90
569;DHT22;269;48.884;9.192;2023-04-24T07:17:03;12.40;99.90
569;DHT22;269;48.884;9.192;2023-04-24T07:19:31;12.40;99.90
569;DHT22;269;48.884;9.192;2023-04-24T07:21:58;12.40;99.90
569;DHT22;269;48.884;9.192;2023-04-24T07:24:26;12.30;99.90
569;DHT22;269;48.884;9.192;2023-04-24T07:26:54;12.10;99.90
569;DHT22;269;48.884;9.192;2023-04-24T07:29:21;11.90;99.90
569;DHT22;269;48.884;9.192;2023-04-24T07:31:48;11.60;99.90
569;DHT22;269;48.884;9.192;2023-04-24T07:34:15;11.50;99.90
569;DHT22;269;48.884;9.192;2023-04-24T07:36:42;11.50;99.90
569;DHT22;269;48.884;9.192;2023-04-24T07:39:09;11.70;99.90
569;DHT22;269;48.884;9.192;2023-04-24T07:41:38;11.90;99.90
569;DHT22;269;48.884;9.192;2023-04-24T07:44:05;12.10;99.90
569;DHT22;269;48.884;9.192;2023-04-24T07:46:32;12.20;99.90
569;DHT22;269;48.884;9.192;2023-04-24T07:48:59;12.00;99.90
569;DHT22;269;48.884;9.192;2023-04-24T07:51:27;11.90;99.90
569;DHT22;269;48.884;9.192;2023-04-24T07:53:54;11.90;99.90
569;DHT22;269;48.884;9.192;2023-04-24T07:56:22;12.00;99.90
569;DHT22;269;48.884;9.192;2023-04-24T07:58:50;12.20;99.90
569;DHT22;269;48.884;9.192;2023-04-24T08:01:17;12.30;99.90
569;DHT22;269;48.884;9.192;2023-04-24T08:03:44;12.40;99.90
569;DHT22;269;48.884;9.192;2023-04-24T08:06:11;12.40;99.90
569;DHT22;269;48.884;9.192;2023-04-24T08:08:38;12.40;99.90
569;DHT22;269;48.884;9.192;2023-04-24T08:11:05;12.30;99.90
569;DHT22;269;48.884;9.192;2023-04-24T08:13:33;12.20;99.90
569;DHT22;269;48.884;9.192;2023-04-24T08:16:01;12.20;99.90
569;DHT22;269;48.884;9.192;2023-04-24T08:18:28;12.20;99.90
569;DHT22;269;48.884;9.192;2023-04-24T08:20:55;12.30;99.90
569;DHT22;269;48.884;9.192;2023-04-24T08:23:27;12.60;99.90
569;DHT22;269;48.884;9.192;2023-04-24T08:25:55;12.70;99.90
569;DHT22;269;48.884;9.192;2023-04-24T08:28:23;12.60;99.90
569;DHT22;269;48.884;9.192;2023-04-24T08:30:50;12.40;99.90
569;DHT22;269;48.884;9.192;2023-04-24T08:33:21;12.40;99.90
569;DHT22;269;48.884;9.192;2023-04-24T08:35:48;12.30;99.90
569;DHT22;269;48.884;9.192;2023-04-24T08:38:16;12.40;99.90
569;DHT22;269;48.884;9.192;2023-04-24T08:40:43;12.60;99.90
569;DHT22;269;48.884;9.192;2023-04-24T08:43:12;12.50;99.90
569;DHT22;269;48.884;9.192;2023-04-24T08:45:40;12.80;99.90
569;DHT22;269;48.884;9.192;2023-04-24T08:48:07;13.00;99.90
569;DHT22;269;48.884;9.192;2023-04-24T08:50:37;13.40;99.90
569;DHT22;269;48.884;9.192;2023-04-24T08:53:04;13.80;99.90
569;DHT22;269;48.884;9.192;2023-04-24T08:55:33;13.60;99.90
569;DHT22;269;48.884;9.192;2023-04-24T08:58:02;13.20;99.90
569;DHT22;269;48.884;9.192;2023-04-24T09:00:30;12.70;99.90
569;DHT22;269;48.884;9.192;2023-04-24T09:02:57;12.30;99.90
569;DHT22;269;48.884;9.192;2023-04-24T09:05:25;12.20;99.90
569;DHT22;269;48.884;9.192;2023-04-24T09:07:56;12.20;99.90
569;DHT22;269;48.884;9.192;2023-04-24T09:10:24;12.00;99.90
569;DHT22;269;48.884;9.192;2023-04-24T09:12:52;12.10;99.90
569;DHT22;269;48.884;9.192;2023-04-24T09:15:19;12.10;99.90
569;DHT22;269;48.884;9.192;2023-04-24T09:17:47;12.20;99.90
569;DHT22;269;48.884;9.192;2023-04-24T09:20:14;12.70;99.90
569;DHT22;269;48.884;9.192;2023-04-24T09:22:42;12.50;99.90
569;DHT22;269;48.884;9.192;2023-04-24T09:25:11;12.30;99.90
569;DHT22;269;48.884;9.192;2023-04-24T09:27:42;12.10;99.90
569;DHT22;269;48.884;9.192;2023-04-24T09:30:10;11.80;99.90
569;DHT22;269;48.884;9.192;2023-04-24T09:32:37;11.60;99.90
569;DHT22;269;48.884;9.192;2023-04-24T09:35:07;11.50;99.90
569;DHT22;269;48.884;9.192;2023-04-24T09:37:36;11.50;99.90
569;DHT22;269;48.884;9.192;2023-04-24T09:40:15;11.50;99.90
569;DHT22;269;48.884;9.192;2023-04-24T09:42:46;11.80;99.90
569;DHT22;269;48.884;9.192;2023-04-24T09:45:18;12.00;99.90
569;DHT22;269;48.884;9.192;2023-04-24T09:47:45;12.50;99.90
569;DHT22;269;48.884;9.192;2023-04-24T09:50:14;12.80;99.90
569;DHT22;269;48.884;9.192;2023-04-24T09:52:43;13.00;99.90
569;DHT22;269;48.884;9.192;2023-04-24T09:55:11;13.00;99.90
569;DHT22;269;48.884;9.192;2023-04-24T09:57:48;12.90;99.90
569;DHT22;269;48.884;9.192;2023-04-24T10:00:22;12.60;99.90
569;DHT22;269;48.884;9.192;2023-04-24T10:02:59;12.30;99.90
569;DHT22;269;48.884;9.192;2023-04-24T10:05:29;12.10;99.90
569;DHT22;269;48.884;9.192;2023-04-24T10:07:59;12.20;99.90
569;DHT22;269;48.884;9.192;2023-04-24T10:10:27;12.40;99.90
569;DHT22;269;48.884;9.192;2023-04-24T10:12:56;12.70;99.90
569;DHT22;269;48.884;9.192;2023-04-24T10:15:24;12.90;99.90
569;DHT22;269;48.884;9.192;2023-04-24T10:17:53;12.80;99.90
569;DHT22;269;48.884;9.192;2023-04-24T10:20:22;12.80;99.90
569;DHT22;269;48.884;9.192;2023-04-24T10:22:50;12.60;99.90
569;DHT22;269;48.884;9.192;2023-04-24T10:25:19;12.30;99.90
569;DHT22;269;48.884;9.192;2023-04-24T10:27:48;12.10;99.90
569;DHT22;269;48.884;9.192;2023-04-24T10:30:17;12.00;99.90
569;DHT22;269;48.884;9.192;2023-04-24T10:32:45;11.90;99.90
569;DHT22;269;48.884;9.192;2023-04-24T10:35:14;11.80;99.90
569;DHT22;269;48.884;9.192;2023-04-24T10:37:44;11.80;99.90
569;DHT22;269;48.884;9.192;2023-04-24T10:40:17;11.70;99.90
569;DHT22;269;48.884;9.192;2023-04-24T10:42:47;11.60;99.90
569;DHT22;269;48.884;9.192;2023-04-24T10:45:20;11.50;99.90
569;DHT22;269;48.884;9.192;2023-04-24T10:47:57;11.50;99.90
569;DHT22;269;48.884;9.192;2023-04-24T10:50:26;11.60;99.90
569;DHT22;269;48.884;9.192;2023-04-24T10:53:05;11.60;99.90
569;DHT22;269;48.884;9.192;2023-04-24T10:55:44;11.70;99.90
569;DHT22;269;48.884;9.192;2023-04-24T10:58:11;11.90;99.90
569;DHT22;269;48.884;9.192;2023-04-24T11:00:40;12.10;99.90
569;DHT22;269;48.884;9.192;2023-04-24T11:03:23;12.20;99.90
569;DHT22;269;48.884;9.192;2023-04-24T11:06:01;12.30;99.90
569;DHT22;269;48.884;9.192;2023-04-24T11:08:30;12.70;99.90
569;DHT22;269;48.884;9.192;2023-04-24T11:11:01;12.90;99.90
569;DHT22;269;48.884;9.192;2023-04-24T11:16:35;13.00;99.90
569;DHT22;269;48.884;9.192;2023-04-24T11:19:05;12.80;99.90
569;DHT22;269;48.884;9.192;2023-04-24T11:21:39;12.40;99.90
569;DHT22;269;48.884;9.192;2023-04-24T11:24:24;13.00;99.90
569;DHT22;269;48.884;9.192;2023-04-24T11:26:51;12.90;99.90
569;DHT22;269;48.884;9.192;2023-04-24T11:29:20;13.00;99.90
569;DHT22;269;48.884;9.192;2023-04-24T11:31:49;13.10;99.90
569;DHT22;269;48.884;9.192;2023-04-24T11:34:17;13.10;99.90
569;DHT22;269;48.884;9.192;2023-04-24T11:36:45;13.10;99.90
569;DHT22;269;48.884;9.192;2023-04-24T11:39:13;13.10;99.90
569;DHT22;269;48.884;9.192;2023-04-24T11:41:41;13.10;99.90
569;DHT22;269;48.884;9.192;2023-04-24T11:44:09;13.20;99.90
569;DHT22;269;48.884;9.192;2023-04-24T11:46:36;13.10;99.90
569;DHT22;269;48.884;9.192;2023-04-24T11:49:07;12.80;99.90
569;DHT22;269;48.884;9.192;2023-04-24T11:51:34;12.40;99.90
569;DHT22;269;48.884;9.192;2023-04-24T11:54:01;12.20;99.90
569;DHT22;269;48.884;9.192;2023-04-24T11:56:29;12.10;99.90
569;DHT22;269;48.884;9.192;2023-04-24T11:58:56;12.20;99.90
569;DHT22;269;48.884;9.192;2023-04-24T12:01:23;12.40;99.90
569;DHT22;269;48.884;9.192;2023-04-24T12:03:51;12.60;99.90
569;DHT22;269;48.884;9.192;2023-04-24T12:06:27;12.70;99.90
569;DHT22;269;48.884;9.192;2023-04-24T12:08:54;12.70;99.90
569;DHT22;269;48.884;9.192;2023-04-24T12:11:23;12.60;99.90
569;DHT22;269;48.884;9.192;2023-04-24T12:13:51;12.60;99.90
569;DHT22;269;48.884;9.192;2023-04-24T12:16:18;12.60;99.90
569;DHT22;269;48.884;9.192;2023-04-24T12:18:45;12.60;99.90
569;DHT22;269;48.884;9.192;2023-04-24T12:21:17;12.50;99.90
569;DHT22;269;48.884;9.192;2023-04-24T12:23:46;12.50;99.90
569;DHT22;269;48.884;9.192;2023-04-24T12:26:16;12.50;99.90
569;DHT22;269;48.884;9.192;2023-04-24T12:28:47;12.20;99.90
569;DHT22;269;48.884;9.192;2023-04-24T12:31:15;12.10;99.90
569;DHT22;269;48.884;9.192;2023-04-24T12:33:42;12.00;99.90
569;DHT22;269;48.884;9.192;2023-04-24T12:36:10;12.10;99.90
569;DHT22;269;48.884;9.192;2023-04-24T12:38:39;12.50;99.90
569;DHT22;269;48.884;9.192;2023-04-24T12:41:13;12.20;99.90
569;DHT22;269;48.884;9.192;2023-04-24T12:43:51;12.30;99.90
569;DHT22;269;48.884;9.192;2023-04-24T12:46:19;12.30;99.90
569;DHT22;269;48.884;9.192;2023-04-24T12:48:46;12.30;99.90
569;DHT22;269;48.884;9.192;2023-04-24T12:51:13;12.30;99.90
569;DHT22;269;48.884;9.192;2023-04-24T12:53:40;12.30;99.90
569;DHT22;269;48.884;9.192;2023-04-24T12:56:07;12.30;99.90
569;DHT22;269;48.884;9.192;2023-04-24T12:58:35;12.30;99.90
569;DHT22;269;48.884;9.192;2023-04-24T13:01:03;12.40;99.90
569;DHT22;269;48.884;9.192;2023-04-24T13:03:30;12.40;99.90
569;DHT22;269;48.884;9.192;2023-04-24T13:05:57;12.30;99.90
569;DHT22;269;48.884;9.192;2023-04-24T13:08:24;12.10;99.90
569;DHT22;269;48.884;9.192;2023-04-24T13:10:51;12.10;99.90
569;DHT22;269;48.884;9.192;2023-04-24T13:13:19;12.40;99.90
569;DHT22;269;48.884;9.192;2023-04-24T13:15:48;12.60;99.90
569;DHT22;269;48.884;9.192;2023-04-24T13:18:15;12.80;99.90
569;DHT22;269;48.884;9.192;2023-04-24T13:20:42;12.80;99.90
569;DHT22;269;48.884;9.192;2023-04-24T13:23:09;12.70;99.90
569;DHT22;269;48.884;9.192;2023-04-24T13:25:37;12.50;99.90
569;DHT22;269;48.884;9.192;2023-04-24T13:28:04;12.30;99.90
569;DHT22;269;48.884;9.192;2023-04-24T13:30:32;12.30;99.90
569;DHT22;269;48.884;9.192;2023-04-24T13:33:00;12.50;99.90
569;DHT22;269;48.884;9.192;2023-04-24T13:35:27;13.10;99.90
569;DHT22;269;48.884;9.192;2023-04-24T13:37:55;13.80;99.90
569;DHT22;269;48.884;9.192;2023-04-24T13:40:22;14.30;99.90
569;DHT22;269;48.884;9.192;2023-04-24T13:42:49;14.60;99.90
569;DHT22;269;48.884;9.192;2023-04-24T13:45:16;14.80;99.90
569;DHT22;269;48.884;9.192;2023-04-24T13:47:43;15.10;99.90
569;DHT22;269;48.884;9.192;2023-04-24T13:50:12;15.00;99.90
569;DHT22;269;48.884;9.192;2023-04-24T13:52:39;14.30;99.90
569;DHT22;269;48.884;9.192;2023-04-24T13:55:07;13.70;99.90
569;DHT22;269;48.884;9.192;2023-04-24T13:57:34;13.40;99.90
569;DHT22;269;48.884;9.192;2023-04-24T14:00:02;13.20;99.90
569;DHT22;269;48.884;9.192;2023-04-24T14:02:29;12.90;99.90
569;DHT22;269;48.884;9.192;2023-04-24T14:04:57;12.80;99.90
569;DHT22;269;48.884;9.192;2023-04-24T14:07:25;12.50;99.90
569;DHT22;269;48.884;9.192;2023-04-24T14:09:52;12.40;99.90
569;DHT22;269;48.884;9.192;2023-04-24T14:12:20;12.60;99.90
569;DHT22;269;48.884;9.192;2023-04-24T14:14:47;12.60;99.90
569;DHT22;269;48.884;9.192;2023-04-24T14:17:14;12.60;99.90
569;DHT22;269;48.884;9.192;2023-04-24T14:19:41;12.50;99.90
569;DHT22;269;48.884;9.192;2023-04-24T14:22:09;12.40;99.90
569;DHT22;269;48.884;9.192;2023-04-24T14:24:38;12.40;99.90
569;DHT22;269;48.884;9.192;2023-04-24T14:27:04;12.50;99.90
569;DHT22;269;48.884;9.192;2023-04-24T14:29:32;12.60;99.90
569;DHT22;269;48.884;9.192;2023-04-24T14:31:59;12.80;99.90
569;DHT22;269;48.884;9.192;2023-04-24T14:34:26;12.90;99.90
569;DHT22;269;48.884;9.192;2023-04-24T14:36:53;12.90;99.90
569;DHT22;269;48.884;9.192;2023-04-24T14:39:20;12.90;99.90
569;DHT22;269;48.884;9.192;2023-04-24T14:41:48;12.80;99.90
569;DHT22;269;48.884;9.192;2023-04-24T14:44:16;12.60;99.90
569;DHT22;269;48.884;9.192;2023-04-24T14:46:43;12.50;99.90
569;DHT22;269;48.884;9.192;2023-04-24T14:49:10;12.50;99.90
569;DHT22;269;48.884;9.192;2023-04-24T14:51:38;12.60;99.90
569;DHT22;269;48.884;9.192;2023-04-24T14:54:06;12.60;99.90
569;DHT22;269;48.884;9.192;2023-04-24T14:56:33;12.70;99.90
569;DHT22;269;48.884;9.192;2023-04-24T14:59:02;12.90;99.90
569;DHT22;269;48.884;9.192;2023-04-24T15:01:29;13.70;99.90
569;DHT22;269;48.884;9.192;2023-04-24T15:03:56;14.00;99.90
569;DHT22;269;48.884;9.192;2023-04-24T15:06:24;14.00;99.90
569;DHT22;269;48.884;9.192;2023-04-24T15:08:51;14.70;99.90
569;DHT22;269;48.884;9.192;2023-04-24T15:11:18;15.00;99.90
569;DHT22;269;48.884;9.192;2023-04-24T15:13:45;15.20;99.90
569;DHT22;269;48.884;9.192;2023-04-24T15:16:14;15.40;99.90
569;DHT22;269;48.884;9.192;2023-04-24T15:18:41;15.40;99.90
569;DHT22;269;48.884;9.192;2023-04-24T15:21:08;14.90;99.90
569;DHT22;269;48.884;9.192;2023-04-24T15:23:35;14.20;99.90
569;DHT22;269;48.884;9.192;2023-04-24T15:26:02;13.50;99.90
569;DHT22;269;48.884;9.192;2023-04-24T15:28:30;13.00;99.90
569;DHT22;269;48.884;9.192;2023-04-24T15:30:57;12.80;99.90
569;DHT22;269;48.884;9.192;2023-04-24T15:33:25;12.70;99.90
569;DHT22;269;48.884;9.192;2023-04-24T15:35:52;12.60;99.90
569;DHT22;269;48.884;9.192;2023-04-24T15:38:20;12.50;99.90
569;DHT22;269;48.884;9.192;2023-04-24T15:40:47;12.40;99.90
569;DHT22;269;48.884;9.192;2023-04-24T15:43:15;12.80;99.90
569;DHT22;269;48.884;9.192;2023-04-24T15:45:43;12.90;99.90
569;DHT22;269;48.884;9.192;2023-04-24T15:48:10;12.80;99.90
569;DHT22;269;48.884;9.192;2023-04-24T15:50:38;12.80;99.90
569;DHT22;269;48.884;9.192;2023-04-24T15:53:05;13.10;99.90
569;DHT22;269;48.884;9.192;2023-04-24T15:55:32;13.60;99.90
569;DHT22;269;48.884;9.192;2023-04-24T15:58:00;14.20;99.90
569;DHT22;269;48.884;9.192;2023-04-24T16:00:27;14.70;99.90
569;DHT22;269;48.884;9.192;2023-04-24T16:02:59;15.00;99.90
569;DHT22;269;48.884;9.192;2023-04-24T16:05:26;15.40;99.90
569;DHT22;269;48.884;9.192;2023-04-24T16:07:55;15.90;99.90
569;DHT22;269;48.884;9.192;2023-04-24T16:10:22;15.90;99.90
569;DHT22;269;48.884;9.192;2023-04-24T16:12:49;15.90;99.90
569;DHT22;269;48.884;9.192;2023-04-24T16:15:18;15.90;99.90
569;DHT22;269;48.884;9.192;2023-04-24T16:17:45;16.00;99.90
569;DHT22;269;48.884;9.192;2023-04-24T16:20:13;16.20;99.90
569;DHT22;269;48.884;9.192;2023-04-24T16:22:40;16.20;99.90
569;DHT22;269;48.884;9.192;2023-04-24T16:25:09;16.30;99.90
569;DHT22;269;48.884;9.192;2023-04-24T16:27:36;16.30;99.90
569;DHT22;269;48.884;9.192;2023-04-24T16:30:04;15.80;99.90
569;DHT22;269;48.884;9.192;2023-04-24T16:32:31;15.20;99.90
569;DHT22;269;48.884;9.192;2023-04-24T16:34:59;14.60;99.90
569;DHT22;269;48.884;9.192;2023-04-24T16:37:27;14.30;99.90
569;DHT22;269;48.884;9.192;2023-04-24T16:39:55;13.90;99.90
569;DHT22;269;48.884;9.192;2023-04-24T16:42:23;13.40;99.90